Time;durP1;ratioP1;P1;durP2;ratioP2;P2;SDS_P1;SDS_P2;PMS_P1;PMS_P2;Temp;Humidity;BMP_temperature;BMP_pressure;BME280_temperature;BME280_humidity;BME280_pressure;Samples;Min_cycle;Max_cycle;Signal;HPM_P1;HPM_P2
2024/01/13 00:01:00;;;;;;;25.90;13.80;;;;;;;-9.62;96.00;99995.55;88366;278;138117;-78
2024/01/13 00:03:03;;;;;;;25.20;12.80;;;;;;;-9.59;96.18;99992.02;88293;271;22569;-85
2024/01/13 00:05:08;;;;;;;26.20;13.00;;;;;;;-9.59;96.90;99988.20;87862;268;138619;-86
2024/01/13 00:07:09;;;;;;;21.80;12.60;;;;;;;-9.59;97.51;99980.29;88123;267;22722;-81
2024/01/13 00:09:11;;;;;;;19.40;11.80;;;;;;;-9.55;97.80;99976.17;88415;277;137390;-86
2024/01/13 00:11:13;;;;;;;21.60;13.70;;;;;;;-9.53;98.68;99974.88;87464;271;22572;-87
2024/01/13 00:13:15;;;;;;;26.10;13.40;;;;;;;-9.51;99.71;99972.39;87051;267;137216;-85
2024/01/13 00:15:18;;;;;;;22.70;13.00;;;;;;;-9.48;99.82;99961.93;87474;278;24006;-87
2024/01/13 00:17:22;;;;;;;27.50;14.50;;;;;;;-9.45;100.00;99957.47;87296;276;137029;-86
2024/01/13 00:19:23;;;;;;;22.60;12.10;;;;;;;-9.43;100.00;99952.75;87308;267;22560;-87
2024/01/13 00:21:26;;;;;;;24.70;13.10;;;;;;;-9.45;100.00;99948.69;88052;276;136941;-86
2024/01/13 00:23:28;;;;;;;20.80;10.90;;;;;;;-9.46;100.00;99949.09;87383;272;22809;-86
2024/01/13 00:25:30;;;;;;;19.80;12.00;;;;;;;-9.48;100.00;99947.65;87166;271;136996;-83
2024/01/13 00:27:31;;;;;;;24.80;12.40;;;;;;;-9.45;100.00;99935.98;87162;271;22652;-82
2024/01/13 00:29:33;;;;;;;26.40;13.70;;;;;;;-9.50;100.00;99931.91;86969;269;137505;-83
2024/01/13 00:31:35;;;;;;;21.20;11.00;;;;;;;-9.57;100.00;99924.99;87256;271;22632;-84
2024/01/13 00:33:39;;;;;;;23.10;11.50;;;;;;;-9.58;100.00;99920.41;87216;267;137511;-84
2024/01/13 00:35:41;;;;;;;18.20;12.30;;;;;;;-9.61;100.00;99913.83;87258;278;22811;-85
2024/01/13 00:37:44;;;;;;;15.60;10.50;;;;;;;-9.63;100.00;99915.61;86984;270;137086;-68
2024/01/13 00:39:46;;;;;;;22.80;11.10;;;;;;;-9.62;100.00;99906.12;87055;271;22571;-85
2024/01/13 00:41:48;;;;;;;17.30;11.30;;;;;;;-9.60;100.00;99901.06;87357;278;137629;-81
2024/01/13 00:43:50;;;;;;;18.80;11.10;;;;;;;-9.58;100.00;99897.20;87460;267;22589;-75
2024/01/13 00:45:52;;;;;;;19.20;11.30;;;;;;;-9.56;100.00;99894.17;86921;268;138241;-79
2024/01/13 00:47:54;;;;;;;19.10;11.00;;;;;;;-9.52;100.00;99887.44;87165;270;25125;-81
2024/01/13 00:49:56;;;;;;;14.30;8.40;;;;;;;-9.51;100.00;99882.21;87058;270;137290;-81
2024/01/13 00:51:58;;;;;;;19.10;11.70;;;;;;;-9.48;100.00;99880.02;87124;274;22564;-80
2024/01/13 00:54:00;;;;;;;15.70;10.20;;;;;;;-9.44;100.00;99866.92;87073;274;138791;-78
2024/01/13 00:56:02;;;;;;;15.30;10.30;;;;;;;-9.38;100.00;99858.90;87517;267;22580;-78
2024/01/13 00:58:04;;;;;;;20.80;12.40;;;;;;;-9.33;100.00;99857.98;88194;276;23926;-84
2024/01/13 01:00:10;;;;;;;16.30;10.60;;;;;;;-9.29;100.00;99853.34;88058;270;139044;-78
2024/01/13 01:02:12;;;;;;;19.10;10.40;;;;;;;-9.26;100.00;99852.85;87906;270;22516;-81
2024/01/13 01:04:14;;;;;;;11.90;8.30;;;;;;;-9.25;100.00;99849.52;88152;273;137945;-78
2024/01/13 01:06:16;;;;;;;11.80;7.90;;;;;;;-9.23;100.00;99845.12;87324;268;24090;-84
2024/01/13 01:08:19;;;;;;;14.90;8.90;;;;;;;-9.21;100.00;99839.34;87360;272;137462;-73
2024/01/13 01:10:27;;;;;;;15.50;8.70;;;;;;;-9.20;100.00;99837.55;87676;270;22549;-85
2024/01/13 01:12:29;;;;;;;15.10;9.00;;;;;;;-9.21;100.00;99826.06;87438;271;137115;-85
2024/01/13 01:14:31;;;;;;;15.30;7.80;;;;;;;-9.18;100.00;99823.38;87439;273;24952;-83
2024/01/13 01:16:35;;;;;;;15.00;8.50;;;;;;;-9.15;100.00;99813.23;87291;266;137249;-86
2024/01/13 01:18:37;;;;;;;12.40;8.20;;;;;;;-9.11;100.00;99807.55;87278;264;26283;-85
2024/01/13 01:20:47;;;;;;;13.30;8.70;;;;;;;-9.13;100.00;99801.09;87389;273;136894;-82
2024/01/13 01:22:51;;;;;;;11.80;7.50;;;;;;;-9.07;100.00;99798.73;89107;272;22812;-82
2024/01/13 01:24:53;;;;;;;14.90;8.60;;;;;;;-9.07;100.00;99789.56;88979;272;138924;-87
2024/01/13 01:26:54;;;;;;;11.40;6.70;;;;;;;-9.04;100.00;99785.98;87582;267;22568;-81
2024/01/13 01:28:59;;;;;;;9.60;6.80;;;;;;;-9.01;100.00;99782.23;87619;268;138456;-87
2024/01/13 01:31:01;;;;;;;14.20;8.40;;;;;;;-9.04;100.00;99777.23;87702;272;24732;-81
2024/01/13 01:33:04;;;;;;;16.30;8.70;;;;;;;-9.08;100.00;99771.39;87884;267;137360;-89
2024/01/13 01:35:07;;;;;;;12.60;8.30;;;;;;;-9.10;100.00;99764.42;88225;271;22546;-88
2024/01/13 01:37:09;;;;;;;19.10;8.70;;;;;;;-9.09;100.00;99761.98;87390;268;137063;-90
2024/01/13 01:39:11;;;;;;;15.50;7.70;;;;;;;-9.12;100.00;99754.21;87872;265;24004;-85
2024/01/13 01:41:15;;;;;;;11.70;7.20;;;;;;;-9.08;100.00;99752.80;87354;264;137289;-82
2024/01/13 01:43:20;;;;;;;15.80;9.50;;;;;;;-9.09;100.00;99741.66;88092;264;24148;-78
2024/01/13 01:45:23;;;;;;;14.20;8.70;;;;;;;-9.11;100.00;99740.04;89377;264;137137;-86
2024/01/13 01:47:29;;;;;;;11.80;7.50;;;;;;;-9.11;100.00;99730.44;89156;264;22756;-78
2024/01/13 01:49:31;;;;;;;8.60;6.30;;;;;;;-9.09;100.00;99727.36;90101;264;136983;-85
2024/01/13 01:51:34;;;;;;;15.00;7.00;;;;;;;-9.08;100.00;99723.36;89549;264;22634;-78
2024/01/13 01:53:36;;;;;;;11.80;8.40;;;;;;;-9.09;100.00;99719.45;88980;262;138021;-88
2024/01/13 01:55:39;;;;;;;12.60;7.70;;;;;;;-9.03;100.00;99711.05;89109;264;22530;-83
2024/01/13 01:57:43;;;;;;;17.90;8.00;;;;;;;-9.01;100.00;99699.59;89715;264;139967;-80
2024/01/13 01:59:45;;;;;;;10.60;7.20;;;;;;;-8.98;100.00;99690.85;89320;261;22468;-87
2024/01/13 02:01:47;;;;;;;12.50;7.50;;;;;;;-8.90;100.00;99690.58;88534;273;137209;-85
2024/01/13 02:03:51;;;;;;;16.50;8.70;;;;;;;-8.90;100.00;99678.19;89289;272;24154;-81
2024/01/13 02:05:55;;;;;;;15.60;8.70;;;;;;;-8.88;100.00;99673.59;89891;274;136575;-81
2024/01/13 02:08:04;;;;;;;11.90;6.60;;;;;;;-8.83;100.00;99673.85;89942;272;137651;-69
2024/01/13 02:10:06;;;;;;;13.50;7.90;;;;;;;-8.80;100.00;99663.91;89912;267;22527;-75
2024/01/13 02:12:08;;;;;;;10.60;7.30;;;;;;;-8.86;100.00;99660.91;89614;260;137165;-75
2024/01/13 02:14:10;;;;;;;13.10;8.20;;;;;;;-8.84;100.00;99656.66;88070;262;24124;-80
2024/01/13 02:16:14;;;;;;;11.50;7.40;;;;;;;-8.81;100.00;99659.95;87943;268;137259;-85
2024/01/13 02:18:16;;;;;;;12.90;7.80;;;;;;;-8.79;100.00;99663.30;89722;269;22519;-76
2024/01/13 02:20:32;;;;;;;11.00;6.50;;;;;;;-8.79;100.00;99662.28;88044;265;137262;-83
2024/01/13 02:22:34;;;;;;;11.60;7.50;;;;;;;-8.78;100.00;99659.15;88334;273;22827;-85
2024/01/13 02:24:36;;;;;;;13.40;7.00;;;;;;;-8.72;100.00;99653.13;87625;268;137223;-82
2024/01/13 02:26:41;;;;;;;;;;;;;;;-8.67;100.00;99646.80;88603;272;22497;-86
2024/01/13 02:28:45;;;;;;;11.50;6.70;;;;;;;-8.61;100.00;99643.23;88120;273;123414;-86
2024/01/13 02:30:50;;;;;;;;;;;;;;;-8.61;100.00;99634.45;88218;270;22549;-83
2024/01/13 02:32:52;;;;;;;13.10;7.40;;;;;;;-8.63;100.00;99626.10;87917;268;124403;-88
2024/01/13 02:34:55;;;;;;;13.40;6.80;;;;;;;-8.65;100.00;99620.36;87477;265;22721;-83
2024/01/13 02:36:56;;;;;;;16.80;7.60;;;;;;;-8.72;100.00;99610.58;87254;273;137186;-86
2024/01/13 02:38:58;;;;;;;14.80;7.60;;;;;;;-8.70;100.00;99603.56;87377;268;23009;-86
2024/01/13 02:41:00;;;;;;;13.00;7.00;;;;;;;-8.73;100.00;99599.07;87270;264;137598;-80
2024/01/13 02:43:01;;;;;;;9.60;6.00;;;;;;;-8.69;100.00;99592.86;87440;268;22661;-86
2024/01/13 02:45:04;;;;;;;14.80;8.20;;;;;;;-8.70;100.00;99591.86;88236;276;137310;-73
2024/01/13 02:47:06;;;;;;;11.60;6.80;;;;;;;-8.66;100.00;99589.02;88384;264;25172;-85
2024/01/13 02:49:08;;;;;;;14.10;8.40;;;;;;;-8.64;100.00;99588.13;87400;276;137046;-83
2024/01/13 02:51:14;;;;;;;12.80;7.90;;;;;;;-8.64;100.00;99583.44;87579;269;23057;-83
2024/01/13 02:53:17;;;;;;;12.60;8.20;;;;;;;-8.62;100.00;99580.23;87380;272;138595;-85
2024/01/13 02:55:19;;;;;;;17.80;8.70;;;;;;;-8.62;100.00;99580.05;87476;273;22559;-85
2024/01/13 02:57:20;;;;;;;12.10;7.90;;;;;;;-8.60;100.00;99579.27;87610;273;138677;-81
2024/01/13 02:59:22;;;;;;;12.80;8.00;;;;;;;-8.55;100.00;99581.23;87503;264;23017;-85
2024/01/13 03:01:24;;;;;;;15.10;7.60;;;;;;;-8.49;100.00;99576.41;87318;278;137223;-86
2024/01/13 03:03:27;;;;;;;11.90;6.90;;;;;;;-8.52;100.00;99574.64;87664;273;25168;-90
2024/01/13 03:05:29;;;;;;;12.40;7.30;;;;;;;-8.49;100.00;99578.44;88692;272;137333;-85
2024/01/13 03:07:31;;;;;;;12.60;6.20;;;;;;;-8.44;100.00;99583.01;89049;264;23961;-86
2024/01/13 03:09:33;;;;;;;11.70;7.30;;;;;;;-8.46;100.00;99579.14;88976;264;136884;-80
2024/01/13 03:11:35;;;;;;;12.50;8.30;;;;;;;-8.42;100.00;99574.98;89480;270;23383;-80
2024/01/13 03:13:37;;;;;;;13.70;7.70;;;;;;;-8.47;100.00;99569.03;88344;270;137154;-84
2024/01/13 03:15:40;;;;;;;13.40;8.50;;;;;;;-8.47;100.00;99573.55;87904;269;22771;-85
2024/01/13 03:17:42;;;;;;;13.70;8.90;;;;;;;-8.52;100.00;99568.84;87875;264;137060;-84
2024/01/13 03:19:44;;;;;;;11.20;8.00;;;;;;;-8.52;100.00;99561.91;88030;273;22534;-82
2024/01/13 03:21:46;;;;;;;9.90;6.70;;;;;;;-8.49;100.00;99561.73;88126;270;137031;-84
2024/01/13 03:23:48;;;;;;;13.00;8.80;;;;;;;-8.48;100.00;99559.96;88196;266;22623;-84
2024/01/13 03:25:50;;;;;;;9.60;6.30;;;;;;;-8.38;100.00;99557.83;88430;269;138313;-85
2024/01/13 03:27:52;;;;;;;12.60;8.00;;;;;;;-8.38;100.00;99555.08;89586;265;23517;-72
2024/01/13 03:29:56;;;;;;;14.30;9.00;;;;;;;-8.34;100.00;99555.05;87676;273;136844;-84
2024/01/13 03:31:58;;;;;;;11.40;7.70;;;;;;;-8.27;100.00;99552.41;87712;268;22596;-88
2024/01/13 03:34:00;;;;;;;11.10;7.40;;;;;;;-8.22;100.00;99550.38;87478;268;136857;-85
2024/01/13 03:36:03;;;;;;;12.90;7.60;;;;;;;-8.17;100.00;99550.63;87459;270;22607;-84
2024/01/13 03:38:05;;;;;;;15.30;7.50;;;;;;;-8.19;100.00;99545.56;87815;270;23326;-82
2024/01/13 03:40:08;;;;;;;12.50;7.70;;;;;;;-8.18;100.00;99543.58;87343;273;136896;-85
2024/01/13 03:42:10;;;;;;;12.10;7.80;;;;;;;-8.20;100.00;99533.89;87743;269;25120;-80
2024/01/13 03:44:13;;;;;;;11.00;7.60;;;;;;;-8.26;100.00;99533.52;87131;277;137452;-87
2024/01/13 03:46:15;;;;;;;14.30;8.00;;;;;;;-8.26;100.00;99528.70;87293;269;22648;-85
2024/01/13 03:48:18;;;;;;;13.40;7.40;;;;;;;-8.27;100.00;99528.74;87197;270;136918;-84
2024/01/13 03:50:21;;;;;;;12.20;7.40;;;;;;;-8.26;100.00;99526.30;88109;270;22642;-85
2024/01/13 03:52:23;;;;;;;11.80;7.70;;;;;;;-8.23;100.00;99525.27;88172;270;136935;-89
2024/01/13 03:54:24;;;;;;;16.20;7.90;;;;;;;-8.23;100.00;99526.63;87830;264;22563;-76
2024/01/13 03:56:27;;;;;;;15.20;7.20;;;;;;;-8.17;100.00;99523.05;87069;268;137367;-80
2024/01/13 03:58:29;;;;;;;14.40;10.10;;;;;;;-8.14;100.00;99522.98;89518;264;24011;-80
2024/01/13 04:00:31;;;;;;;12.30;7.50;;;;;;;-8.11;100.00;99525.05;87678;268;138242;-80
2024/01/13 04:02:33;;;;;;;10.10;5.90;;;;;;;-8.17;100.00;99521.32;87241;272;22658;-80
2024/01/13 04:04:38;;;;;;;15.50;9.10;;;;;;;-8.16;100.00;99516.95;87388;273;293798;-75
2024/01/13 04:06:40;;;;;;;17.90;11.60;;;;;;;-8.17;100.00;99514.44;88482;277;22560;-79
2024/01/13 04:08:44;;;;;;;13.20;8.20;;;;;;;-8.11;100.00;99510.25;87587;264;137221;-78
2024/01/13 04:10:46;;;;;;;13.90;8.10;;;;;;;-8.17;100.00;99513.70;87468;265;22576;-80
2024/01/13 04:12:48;;;;;;;14.50;7.90;;;;;;;-8.16;100.00;99506.98;87165;275;137576;-78
2024/01/13 04:14:50;;;;;;;12.30;8.00;;;;;;;-8.14;100.00;99510.94;87265;263;25186;-80
2024/01/13 04:16:52;;;;;;;13.80;8.70;;;;;;;-8.13;100.00;99507.64;87137;268;137081;-80
2024/01/13 04:18:53;;;;;;;11.60;6.60;;;;;;;-8.13;100.00;99497.98;87246;269;25094;-79
2024/01/13 04:20:56;;;;;;;11.20;6.60;;;;;;;-8.15;100.00;99499.48;87143;269;137087;-78
2024/01/13 04:23:16;;;;;;;13.40;6.40;;;;;;;-8.19;100.00;99490.89;87211;269;24052;-81
2024/01/13 04:25:18;;;;;;;9.70;7.10;;;;;;;-8.21;100.00;99488.94;87135;269;137021;-81
2024/01/13 04:27:20;;;;;;;8.20;5.80;;;;;;;-8.17;100.00;99488.58;87311;273;24165;-79
2024/01/13 04:29:22;;;;;;;13.10;7.60;;;;;;;-8.18;100.00;99487.90;87162;272;138096;-78
2024/01/13 04:31:24;;;;;;;15.00;7.70;;;;;;;-8.14;100.00;99482.68;87269;269;22552;-77
2024/01/13 04:33:26;;;;;;;15.20;7.20;;;;;;;-8.15;100.00;99486.35;87069;270;137790;-76
2024/01/13 04:35:29;;;;;;;18.10;7.80;;;;;;;-8.17;100.00;99485.77;87528;270;22556;-80
2024/01/13 04:37:30;;;;;;;14.60;7.40;;;;;;;-8.16;100.00;99490.75;87176;278;137244;-79
2024/01/13 04:39:32;;;;;;;14.00;8.10;;;;;;;-8.17;100.00;99484.05;87382;273;22651;-77
2024/01/13 04:41:34;;;;;;;12.70;7.00;;;;;;;-8.09;100.00;99492.23;87243;276;137315;-77
2024/01/13 04:43:39;;;;;;;9.20;6.50;;;;;;;-8.04;100.00;99486.23;87287;278;22561;-78
2024/01/13 04:45:41;;;;;;;11.30;7.50;;;;;;;-8.01;100.00;99489.18;87169;268;137064;-80
2024/01/13 04:47:44;;;;;;;11.90;6.50;;;;;;;-8.00;100.00;99485.15;87350;268;22565;-79
2024/01/13 04:49:46;;;;;;;10.70;6.90;;;;;;;-7.96;100.00;99478.37;87450;266;137734;-78
2024/01/13 04:51:48;;;;;;;10.30;6.50;;;;;;;-7.93;100.00;99482.16;87310;269;22486;-79
2024/01/13 04:53:50;;;;;;;11.40;7.70;;;;;;;-7.92;100.00;99477.55;87194;273;137912;-79
2024/01/13 04:55:53;;;;;;;14.90;9.70;;;;;;;-7.89;100.00;99480.67;87184;265;22559;-80
2024/01/13 04:57:55;;;;;;;10.20;6.80;;;;;;;-7.83;100.00;99482.73;87337;278;136788;-79
2024/01/13 04:59:57;;;;;;;12.00;6.80;;;;;;;-7.83;100.00;99477.56;87322;272;22559;-81
2024/01/13 05:02:00;;;;;;;9.70;6.10;;;;;;;-7.82;100.00;99478.20;87141;271;137002;-78
2024/01/13 05:04:01;;;;;;;14.90;8.20;;;;;;;-7.78;100.00;99482.07;87389;272;25130;-81
2024/01/13 05:06:04;;;;;;;11.80;6.90;;;;;;;-7.76;100.00;99485.80;87314;275;22795;-80
2024/01/13 05:08:06;;;;;;;8.60;5.50;;;;;;;-7.76;100.00;99482.16;87202;269;137252;-78
2024/01/13 05:10:08;;;;;;;13.00;7.60;;;;;;;-7.77;100.00;99480.86;87243;272;24016;-80
2024/01/13 05:12:10;;;;;;;10.30;7.20;;;;;;;-7.88;100.00;99481.15;86971;279;137497;-79
2024/01/13 05:14:12;;;;;;;11.80;7.90;;;;;;;-7.87;100.00;99476.60;87166;270;22574;-81
2024/01/13 05:16:14;;;;;;;10.30;7.10;;;;;;;-7.84;100.00;99480.23;87295;264;137342;-77
2024/01/13 05:18:16;;;;;;;16.40;8.40;;;;;;;-7.94;100.00;99478.08;87310;269;22539;-80
2024/01/13 05:20:18;;;;;;;9.40;7.10;;;;;;;-7.94;100.00;99474.26;87160;276;137497;-79
2024/01/13 05:22:20;;;;;;;10.70;7.30;;;;;;;-7.96;100.00;99475.40;87198;270;22510;-79
2024/01/13 05:24:22;;;;;;;11.60;6.90;;;;;;;-7.92;100.00;99474.13;87186;270;137091;-77
2024/01/13 05:26:24;;;;;;;11.90;7.40;;;;;;;-7.91;100.00;99473.35;87404;268;25071;-77
2024/01/13 05:28:27;;;;;;;11.10;6.10;;;;;;;-7.80;100.00;99469.98;86965;279;136964;-76
2024/01/13 05:30:32;;;;;;;10.90;6.80;;;;;;;-7.77;100.00;99465.83;87367;273;22570;-83
2024/01/13 05:32:34;;;;;;;8.10;6.80;;;;;;;-7.80;100.00;99465.29;87318;273;137095;-76
2024/01/13 05:34:36;;;;;;;14.10;7.00;;;;;;;-7.82;100.00;99470.61;87284;275;23192;-83
2024/01/13 05:36:39;;;;;;;11.80;7.20;;;;;;;-7.81;100.00;99467.29;86986;276;137890;-77
2024/01/13 05:38:41;;;;;;;8.70;7.10;;;;;;;-7.80;100.00;99472.73;87133;269;22572;-78
2024/01/13 05:40:44;;;;;;;11.40;7.30;;;;;;;-7.78;100.00;99470.18;86939;264;138613;-78
2024/01/13 05:42:47;;;;;;;12.80;7.00;;;;;;;-7.79;100.00;99465.06;87148;265;22559;-74
2024/01/13 05:44:49;;;;;;;11.00;6.90;;;;;;;-7.83;100.00;99460.66;87055;268;137367;-73
2024/01/13 05:46:51;;;;;;;10.00;6.80;;;;;;;-7.90;100.00;99465.73;87064;268;25089;-81
2024/01/13 05:48:55;;;;;;;11.50;7.30;;;;;;;-7.88;100.00;99458.70;86933;262;137149;-81
2024/01/13 05:50:57;;;;;;;16.40;7.80;;;;;;;-7.90;100.00;99460.39;87184;270;22596;-81
2024/01/13 05:52:59;;;;;;;11.50;7.00;;;;;;;-7.89;100.00;99462.55;87015;260;137378;-80
2024/01/13 05:55:02;;;;;;;9.30;6.90;;;;;;;-7.91;100.00;99466.81;87137;265;22558;-78
2024/01/13 05:57:05;;;;;;;15.60;9.50;;;;;;;-7.91;100.00;99472.88;87039;277;138417;-82
2024/01/13 05:59:07;;;;;;;11.30;7.60;;;;;;;-7.88;100.00;99469.27;87185;268;22572;-79
2024/01/13 06:01:09;;;;;;;12.80;7.40;;;;;;;-7.83;100.00;99471.34;87093;268;136853;-81
2024/01/13 06:03:10;;;;;;;11.60;8.00;;;;;;;-7.75;100.00;99467.56;87262;272;22583;-76
2024/01/13 06:05:13;;;;;;;10.00;7.40;;;;;;;-7.74;100.00;99471.16;87034;268;137395;-79
2024/01/13 06:07:15;;;;;;;12.20;7.80;;;;;;;-7.73;100.00;99473.84;87256;268;22520;-74
2024/01/13 06:09:16;;;;;;;15.60;9.70;;;;;;;-7.71;100.00;99471.50;87308;270;137801;-78
2024/01/13 06:11:19;;;;;;;14.70;8.70;;;;;;;-7.69;100.00;99475.52;87197;275;22569;-73
2024/01/13 06:13:22;;;;;;;14.20;9.50;;;;;;;-7.69;100.00;99474.43;87142;268;136783;-75
2024/01/13 06:15:23;;;;;;;16.00;8.60;;;;;;;-7.65;100.00;99477.65;87219;268;24052;-78
2024/01/13 06:17:28;;;;;;;18.50;10.90;;;;;;;-7.67;100.00;99481.55;87164;264;137192;-79
2024/01/13 06:19:30;;;;;;;15.10;10.50;;;;;;;-7.67;100.00;99484.36;87917;267;24447;-71
2024/01/13 06:21:41;;;;;;;16.60;10.00;;;;;;;-7.61;100.00;99486.09;89139;264;136836;-74
2024/01/13 06:23:45;;;;;;;15.90;10.00;;;;;;;-7.58;100.00;99491.23;89953;266;22444;-76
2024/01/13 06:25:48;;;;;;;21.30;10.70;;;;;;;-7.56;100.00;99487.85;88278;264;138166;-75
2024/01/13 06:27:50;;;;;;;15.70;10.20;;;;;;;-7.65;100.00;99495.44;87796;268;25702;-74
2024/01/13 06:29:52;;;;;;;16.60;10.20;;;;;;;-7.67;100.00;99497.63;86991;278;136702;-73
2024/01/13 06:31:54;;;;;;;18.90;11.10;;;;;;;-7.67;100.00;99503.48;87159;273;22636;-75
2024/01/13 06:33:56;;;;;;;20.60;11.80;;;;;;;-7.74;100.00;99506.85;87063;269;137364;-75
2024/01/13 06:35:59;;;;;;;22.30;12.20;;;;;;;-7.73;100.00;99500.05;87327;272;22735;-74
2024/01/13 06:38:00;;;;;;;20.80;12.50;;;;;;;-7.73;100.00;99501.63;87354;273;136876;-75
2024/01/13 06:40:03;;;;;;;24.70;14.30;;;;;;;-7.71;100.00;99502.91;87176;268;22563;-74
2024/01/13 06:42:06;;;;;;;20.50;12.50;;;;;;;-7.69;100.00;99501.89;87260;267;22539;-73
2024/01/13 06:44:08;;;;;;;22.30;13.00;;;;;;;-7.69;100.00;99501.21;89156;260;138553;-75
2024/01/13 06:46:11;;;;;;;26.80;14.30;;;;;;;-7.66;100.00;99504.80;87274;277;22574;-75
2024/01/13 06:48:13;;;;;;;29.50;13.30;;;;;;;-7.67;100.00;99506.62;87445;273;137389;-74
2024/01/13 06:50:15;;;;;;;19.90;12.10;;;;;;;-7.69;100.00;99505.84;87276;268;26204;-75
2024/01/13 06:52:17;;;;;;;18.20;11.00;;;;;;;-7.68;100.00;99501.50;87523;273;138548;-76
2024/01/13 06:54:18;;;;;;;14.70;9.60;;;;;;;-7.65;100.00;99505.45;87255;268;25223;-74
2024/01/13 06:56:21;;;;;;;17.70;11.40;;;;;;;-7.66;100.00;99511.04;87126;273;137890;-74
2024/01/13 06:58:22;;;;;;;15.50;11.20;;;;;;;-7.60;100.00;99507.56;87305;264;22558;-75
2024/01/13 07:00:25;;;;;;;14.40;10.60;;;;;;;-7.56;100.00;99512.86;87616;264;137018;-73
2024/01/13 07:02:27;;;;;;;14.90;9.80;;;;;;;-7.50;100.00;99510.40;87136;264;24028;-75
2024/01/13 07:04:29;;;;;;;17.90;11.40;;;;;;;-7.43;100.00;99511.89;87023;269;137258;-74
2024/01/13 07:06:31;;;;;;;19.00;11.90;;;;;;;-7.35;100.00;99514.65;87234;271;24617;-74
2024/01/13 07:08:33;;;;;;;22.40;11.50;;;;;;;-7.25;100.00;99512.66;89985;268;138386;-74
2024/01/13 07:10:35;;;;;;;22.20;11.60;;;;;;;-7.19;100.00;99513.84;89979;268;22812;-75
2024/01/13 07:12:37;;;;;;;23.10;13.90;;;;;;;-7.18;100.00;99516.20;89958;272;137105;-75
2024/01/13 07:14:39;;;;;;;23.90;12.50;;;;;;;-7.18;100.00;99518.13;90166;266;22407;-73
2024/01/13 07:16:40;;;;;;;23.30;11.00;;;;;;;-7.14;100.00;99507.52;90033;273;136883;-74
2024/01/13 07:18:42;;;;;;;22.60;11.80;;;;;;;-7.10;100.00;99508.80;90079;265;22354;-73
2024/01/13 07:20:44;;;;;;;22.40;13.10;;;;;;;-7.08;100.00;99510.90;87165;273;137984;-73
2024/01/13 07:22:46;;;;;;;21.40;12.00;;;;;;;-7.12;100.00;99513.09;87160;271;22580;-76
2024/01/13 07:24:48;;;;;;;29.30;12.90;;;;;;;-7.15;100.00;99516.69;86994;270;137203;-72
2024/01/13 07:26:50;;;;;;;19.30;11.30;;;;;;;-7.17;100.00;99517.90;87218;268;23662;-74
2024/01/13 07:28:53;;;;;;;19.00;11.00;;;;;;;-7.23;100.00;99513.05;87313;272;136956;-75
2024/01/13 07:30:54;;;;;;;20.30;12.10;;;;;;;-7.22;100.00;99517.66;87739;264;25109;-75
2024/01/13 07:32:56;;;;;;;17.00;10.30;;;;;;;-7.24;100.00;99509.14;87484;270;137407;-75
2024/01/13 07:34:59;;;;;;;20.40;12.90;;;;;;;-7.19;100.00;99516.84;87224;264;22560;-75
2024/01/13 07:37:01;;;;;;;18.60;12.30;;;;;;;-7.16;100.00;99520.94;87527;266;136613;-75
2024/01/13 07:39:03;;;;;;;12.50;9.70;;;;;;;-7.09;100.00;99523.45;87819;272;23569;-75
2024/01/13 07:41:06;;;;;;;21.80;11.80;;;;;;;-7.09;100.00;99535.36;87444;273;136878;-76
2024/01/13 07:43:08;;;;;;;17.50;11.10;;;;;;;-7.05;100.00;99534.40;87545;269;24155;-75
2024/01/13 07:45:10;;;;;;;19.90;12.50;;;;;;;-6.96;100.00;99534.37;87031;273;138167;-75
2024/01/13 07:47:12;;;;;;;20.90;11.60;;;;;;;-6.86;100.00;99535.27;87294;264;22573;-75
2024/01/13 07:49:14;;;;;;;27.10;16.20;;;;;;;-6.74;100.00;99538.83;87579;264;136945;-75
2024/01/13 07:51:16;;;;;;;24.40;13.70;;;;;;;-6.62;100.00;99543.95;87148;270;22623;-77
2024/01/13 07:53:30;;;;;;;26.70;15.60;;;;;;;-6.51;100.00;99542.53;87030;270;137206;-80
2024/01/13 07:55:34;;;;;;;25.60;15.30;;;;;;;-6.42;100.00;99539.05;87261;269;24007;-82
2024/01/13 07:57:37;;;;;;;27.20;16.90;;;;;;;-6.34;100.00;99542.34;87832;265;137728;-74
2024/01/13 07:59:39;;;;;;;28.70;16.60;;;;;;;-6.29;100.00;99539.59;89995;273;22350;-73
2024/01/13 08:01:40;;;;;;;31.80;15.70;;;;;;;-6.30;100.00;99542.38;90139;264;138283;-72
2024/01/13 08:03:42;;;;;;;27.70;15.20;;;;;;;-6.33;100.00;99541.77;90458;267;22329;-76
2024/01/13 08:07:48;;;;;;;29.90;18.40;;;;;;;-6.57;100.00;99544.84;85375;296;603807;-73
2024/01/13 08:09:51;;;;;;;28.10;16.40;;;;;;;-6.58;100.00;99561.14;85920;284;136046;-75
2024/01/13 08:11:53;;;;;;;33.90;18.80;;;;;;;-6.68;100.00;99576.29;88867;287;22772;-74
2024/01/13 08:13:59;;;;;;;27.20;15.70;;;;;;;-6.80;100.00;99577.27;88832;287;136911;-74
2024/01/13 08:16:00;;;;;;;31.10;15.60;;;;;;;-6.90;100.00;99585.61;88950;287;22219;-74
2024/01/13 08:18:03;;;;;;;22.70;16.40;;;;;;;-6.92;100.00;99589.90;89011;281;135401;-74
2024/01/13 08:20:05;;;;;;;27.80;15.60;;;;;;;-6.91;100.00;99593.48;88843;286;137853;-73
2024/01/13 08:22:07;;;;;;;23.00;15.20;;;;;;;-6.92;100.00;99597.32;88861;285;307036;-73
2024/01/13 08:24:09;;;;;;;25.10;16.10;;;;;;;-6.91;100.00;99599.49;89347;281;136235;-73
2024/01/13 08:26:12;;;;;;;26.20;15.20;;;;;;;-6.85;100.00;99608.98;89101;285;22308;-73
2024/01/13 08:28:16;;;;;;;30.30;15.80;;;;;;;-6.55;100.00;99604.37;89366;276;137318;-74
2024/01/13 08:30:18;;;;;;;23.00;13.90;;;;;;;-6.41;100.00;99603.12;89787;278;23035;-74
2024/01/13 08:32:20;;;;;;;19.00;12.20;;;;;;;-6.28;100.00;99605.41;89715;278;136675;-72
2024/01/13 08:34:23;;;;;;;19.70;12.80;;;;;;;-6.13;100.00;99613.08;86853;279;22850;-74
2024/01/13 08:36:25;;;;;;;18.10;12.70;;;;;;;-6.20;100.00;99614.58;89341;280;137263;-72
2024/01/13 08:38:27;;;;;;;18.90;12.30;;;;;;;-6.12;100.00;99612.67;89618;270;22232;-70
2024/01/13 08:40:28;;;;;;;21.70;14.60;;;;;;;-6.13;100.00;99609.27;89804;267;137756;-70
2024/01/13 08:42:31;;;;;;;24.40;14.90;;;;;;;-6.10;100.00;99607.17;89762;270;23066;-69
2024/01/13 08:44:33;;;;;;;22.10;14.50;;;;;;;-6.11;100.00;99612.41;89530;270;137738;-70
2024/01/13 08:46:34;;;;;;;22.90;13.40;;;;;;;-6.10;99.72;99611.16;89591;272;22226;-71
2024/01/13 08:48:37;;;;;;;29.60;16.50;;;;;;;-6.02;98.90;99602.38;89351;271;136984;-73
2024/01/13 08:50:39;;;;;;;24.50;15.30;;;;;;;-6.02;98.98;99606.63;89668;279;22276;-72
2024/01/13 08:52:41;;;;;;;31.90;17.60;;;;;;;-6.01;99.39;99612.80;89824;267;137562;-71
2024/01/13 08:54:43;;;;;;;24.10;16.30;;;;;;;-5.92;100.00;99611.52;89691;270;22488;-74
2024/01/13 08:56:45;;;;;;;26.80;17.50;;;;;;;-5.83;99.29;99614.41;89613;270;136376;-74
2024/01/13 08:58:46;;;;;;;21.80;15.30;;;;;;;-5.77;99.10;99616.23;89745;271;22819;-75
2024/01/13 09:00:49;;;;;;;31.10;17.70;;;;;;;-5.73;99.51;99620.10;89665;267;136345;-75
2024/01/13 09:02:51;;;;;;;28.00;16.60;;;;;;;-5.59;99.78;99624.70;89804;269;22798;-75
2024/01/13 09:04:52;;;;;;;26.40;15.50;;;;;;;-5.48;99.35;99632.45;89682;278;138109;-76
2024/01/13 09:06:54;;;;;;;24.90;14.80;;;;;;;-5.51;98.80;99638.06;89787;269;22232;-69
2024/01/13 09:08:56;;;;;;;22.80;15.90;;;;;;;-5.48;98.11;99639.75;89717;269;135501;-69
2024/01/13 09:10:58;;;;;;;22.90;17.20;;;;;;;-5.39;97.88;99640.33;89945;266;22242;-70
2024/01/13 09:13:00;;;;;;;23.60;14.70;;;;;;;-5.38;97.01;99634.57;89681;277;136123;-72
2024/01/13 09:15:02;;;;;;;23.60;13.80;;;;;;;-5.45;95.49;99631.76;90093;264;23143;-70
2024/01/13 09:17:04;;;;;;;28.90;14.00;;;;;;;-5.52;95.73;99638.43;89713;269;136683;-69
2024/01/13 09:19:05;;;;;;;19.90;12.50;;;;;;;-5.58;95.36;99640.09;89930;265;23072;-71
2024/01/13 09:21:09;;;;;;;20.00;13.10;;;;;;;-5.72;95.11;99637.84;87044;274;135290;-72
2024/01/13 09:23:16;;;;;;;26.40;16.50;;;;;;;-5.87;95.44;99640.22;86841;273;23890;-69
2024/01/13 09:25:18;;;;;;;21.60;14.70;;;;;;;-5.94;96.69;99640.00;86772;277;136199;-68
2024/01/13 09:27:19;;;;;;;21.70;14.20;;;;;;;-5.92;97.64;99637.98;86750;281;24020;-71